KPIM/PIM METAR and TAF weather

Enter ICAO airport designator
Station Type Date Time Source
KPIM METAR 2021/04/13 21:35 UTC NOAA

KPIM 132135Z AUTO 00000KT 10SM CLR 30/04 A3004 RMK AO2 T02960041


Station Type Date Time Source
KPIM Decoded METAR 2021/04/13 21:35 UTC NOAA

Station name not available
Apr 13, 2021 - 05:35 PM EDT / 2021.04.13 2135 UTC
Wind: Calm:0
Visibility: 10 mile(s):0
Sky conditions: clear
Temperature: 85.3 F (29.6 C)
Dew Point: 39.4 F (4.1 C)
Relative Humidity: 19%
Pressure (altimeter): 30.04 in. Hg (1017 hPa)
ob: KPIM 132135Z AUTO 00000KT 10SM CLR 30/04 A3004 RMK AO2 T02960041
cycle: 21

Station Type Date Time Source
KPIM TAF UTC NOAA

Error!

Example: see airport list